Time;durP1;ratioP1;P1;durP2;ratioP2;P2;SDS_P1;SDS_P2;PMS_P1;PMS_P2;Temp;Humidity;BMP_temperature;BMP_pressure;BME280_temperature;BME280_humidity;BME280_pressure;Samples;Min_cycle;Max_cycle;Signal;HPM_P1;HPM_P2
2021/03/22 00:01:46;;;;;;;0.13;0.10;;;0.00;65.90;;;;;;20897532;28;20365;-52
2021/03/22 00:11:50;;;;;;;1.60;0.10;;;-0.10;65.70;;;;;;20914231;28;20142;-54
2021/03/22 00:21:52;;;;;;;0.30;0.10;;;0.10;65.90;;;;;;20912441;28;20531;-50
2021/03/22 00:31:54;;;;;;;0.08;0.00;;;0.10;65.70;;;;;;20912827;28;20451;-51
2021/03/22 00:41:55;;;;;;;0.20;0.00;;;0.10;65.40;;;;;;20911600;28;20041;-55
2021/03/22 00:51:57;;;;;;;0.10;0.10;;;0.30;64.90;;;;;;20910109;28;20070;-55
2021/03/22 01:01:59;;;;;;;0.40;0.10;;;0.30;65.80;;;;;;20909462;28;20041;-53
2021/03/22 01:12:01;;;;;;;0.40;0.10;;;0.30;65.90;;;;;;20892364;28;20118;-54
2021/03/22 01:22:03;;;;;;;1.27;0.10;;;0.20;66.30;;;;;;20910009;28;20095;-51
2021/03/22 01:32:11;;;;;;;0.10;0.00;;;0.20;67.40;;;;;;20907901;28;20150;-51
2021/03/22 01:42:26;;;;;;;0.20;0.00;;;0.20;67.70;;;;;;20909214;28;20062;-53
2021/03/22 01:52:45;;;;;;;0.08;0.00;;;0.30;67.50;;;;;;20911331;28;20099;-55
2021/03/22 02:02:50;;;;;;;1.15;0.00;;;0.20;68.00;;;;;;20907213;28;20049;-52
2021/03/22 02:12:52;;;;;;;0.10;0.00;;;0.20;68.70;;;;;;20923757;28;20095;-52
2021/03/22 02:23:22;;;;;;;0.17;0.00;;;0.10;69.10;;;;;;20889010;28;20434;-52
2021/03/22 02:33:42;;;;;;;0.17;0.08;;;-0.10;70.20;;;;;;20922209;28;20041;-53
2021/03/22 02:44:06;;;;;;;0.50;0.05;;;0.10;70.30;;;;;;20921685;28;20067;-53
2021/03/22 02:54:41;;;;;;;0.85;0.10;;;0.00;70.10;;;;;;20902496;28;20095;-56
2021/03/22 03:04:44;;;;;;;0.32;0.13;;;0.10;68.80;;;;;;20917694;28;20119;-52
2021/03/22 03:14:52;;;;;;;0.20;0.10;;;-0.20;70.80;;;;;;20917665;28;20423;-54
2021/03/22 03:24:54;;;;;;;0.00;0.00;;;-0.30;71.10;;;;;;20918475;28;20472;-56
2021/03/22 03:34:56;;;;;;;0.28;0.10;;;-0.40;71.90;;;;;;20917211;28;20376;-56
2021/03/22 03:44:58;;;;;;;0.38;0.10;;;-0.30;71.00;;;;;;20916955;28;20059;-53
2021/03/22 03:55:00;;;;;;;0.30;0.10;;;-0.20;71.60;;;;;;20915828;28;20057;-57
2021/03/22 04:05:05;;;;;;;0.85;0.20;;;-0.10;71.10;;;;;;20914217;28;20056;-53
2021/03/22 04:15:10;;;;;;;0.65;0.10;;;0.20;68.80;;;;;;20914117;28;20072;-55
2021/03/22 04:25:13;;;;;;;0.22;0.10;;;0.20;69.10;;;;;;20913373;28;20037;-55
2021/03/22 04:35:15;;;;;;;0.90;0.20;;;0.30;69.00;;;;;;20911601;28;20098;-52
2021/03/22 04:45:20;;;;;;;0.45;0.10;;;0.20;69.10;;;;;;20912088;28;20393;-51
2021/03/22 04:55:23;;;;;;;0.98;0.20;;;0.20;69.30;;;;;;20909959;28;20048;-54
2021/03/22 05:05:26;;;;;;;0.00;0.00;;;0.20;69.30;;;;;;20910380;28;20048;-53
2021/03/22 05:15:28;;;;;;;0.63;0.13;;;0.10;69.60;;;;;;20908845;28;20037;-52
2021/03/22 05:25:30;;;;;;;0.60;0.10;;;0.20;69.30;;;;;;20909617;28;20103;-55
2021/03/22 05:35:33;;;;;;;1.75;0.13;;;0.20;69.60;;;;;;20891289;28;20036;-58
2021/03/22 05:46:07;;;;;;;0.10;0.08;;;0.10;69.30;;;;;;20908830;28;20087;-51
2021/03/22 05:56:42;;;;;;;0.17;0.13;;;0.40;68.30;;;;;;20908597;28;20041;-53
2021/03/22 06:06:47;;;;;;;1.15;0.20;;;0.60;68.00;;;;;;20907791;28;20045;-53
2021/03/22 06:17:01;;;;;;;1.05;0.20;;;0.70;66.90;;;;;;20907652;28;20045;-52
2021/03/22 06:27:09;;;;;;;0.10;0.10;;;0.80;66.20;;;;;;20905755;28;20392;-57
2021/03/22 06:37:16;;;;;;;0.20;0.10;;;0.90;66.80;;;;;;20905934;28;20033;-54
2021/03/22 06:47:23;;;;;;;0.47;0.20;;;1.00;66.70;;;;;;20919865;28;20094;-54
2021/03/22 06:57:27;;;;;;;0.25;0.10;;;1.10;66.40;;;;;;20919407;28;20108;-56
2021/03/22 07:07:30;;;;;;;0.65;0.25;;;1.30;67.00;;;;;;20901949;28;20041;-55
2021/03/22 07:17:32;;;;;;;0.30;0.15;;;1.60;64.90;;;;;;20919048;28;20041;-55
2021/03/22 07:27:44;;;;;;;1.42;0.20;;;1.80;63.60;;;;;;20883849;28;20106;-54
2021/03/22 07:38:16;;;;;;;1.13;0.30;;;2.00;62.40;;;;;;20899639;28;20036;-56
2021/03/22 07:48:33;;;;;;;0.50;0.08;;;2.20;61.50;;;;;;20917142;28;20519;-56
2021/03/22 07:59:08;;;;;;;;;;;2.40;58.30;;;;;;20914888;28;20033;-54
2021/03/22 08:09:32;;;;;;;1.13;0.37;;;2.50;58.40;;;;;;20908533;28;19927;-54
2021/03/22 08:19:34;;;;;;;0.55;0.20;;;2.50;58.90;;;;;;20896486;28;20040;-54
2021/03/22 08:29:40;;;;;;;0.28;0.17;;;2.90;58.00;;;;;;20895243;28;20459;-55
2021/03/22 08:39:54;;;;;;;0.47;0.28;;;3.60;57.20;;;;;;20912683;28;20554;-56
2021/03/22 08:50:11;;;;;;;1.65;0.20;;;3.70;54.80;;;;;;20911826;28;20037;-52
2021/03/22 09:00:26;;;;;;;0.40;0.10;;;3.80;54.10;;;;;;20911320;28;20439;-56
2021/03/22 09:10:41;;;;;;;0.98;0.28;;;4.10;53.20;;;;;;20908333;28;20041;-56
2021/03/22 09:20:45;;;;;;;0.98;0.30;;;4.20;52.20;;;;;;20910028;28;20063;-57
2021/03/22 09:31:15;;;;;;;0.80;0.20;;;4.30;51.60;;;;;;20891427;28;20094;-56
2021/03/22 09:41:17;;;;;;;0.50;0.20;;;4.70;54.10;;;;;;20874691;28;20477;-58
2021/03/22 09:51:30;;;;;;;0.95;0.32;;;5.30;52.80;;;;;;20908827;28;20404;-53
2021/03/22 10:01:39;;;;;;;1.05;0.32;;;6.30;51.50;;;;;;20890663;28;20033;-55
2021/03/22 10:11:45;;;;;;;1.35;0.38;;;6.40;51.20;;;;;;20874078;28;20037;-55
2021/03/22 10:21:51;;;;;;;0.55;0.20;;;6.50;50.30;;;;;;20921547;28;20550;-54
2021/03/22 10:32:25;;;;;;;0.80;0.40;;;7.40;49.30;;;;;;20904898;28;20045;-58
2021/03/22 10:42:30;;;;;;;0.50;0.25;;;8.20;47.70;;;;;;20920588;28;20037;-53
2021/03/22 10:52:32;;;;;;;1.45;0.40;;;8.70;45.90;;;;;;20886706;28;20045;-57
2021/03/22 11:02:43;;;;;;;1.42;0.30;;;8.70;46.40;;;;;;20920580;28;20072;-56
2021/03/22 11:12:47;;;;;;;;;;;7.30;45.50;;;;;;20902199;28;20041;-53
2021/03/22 11:22:51;;;;;;;2.70;0.30;;;8.00;43.70;;;;;;20885835;28;19928;-54
2021/03/22 11:32:53;;;;;;;2.22;0.30;;;8.60;42.80;;;;;;20899394;28;20131;-55
2021/03/22 11:43:01;;;;;;;0.40;0.20;;;8.60;44.10;;;;;;20917303;28;20037;-55
2021/03/22 11:53:12;;;;;;;0.60;0.32;;;9.90;44.00;;;;;;20914785;28;20114;-56
2021/03/22 12:03:27;;;;;;;1.70;0.40;;;10.30;41.70;;;;;;20916047;28;20048;-54
2021/03/22 12:13:29;;;;;;;8.57;5.32;;;10.00;40.50;;;;;;20915111;28;20041;-59
2021/03/22 12:23:31;;;;;;;7.68;4.13;;;10.70;53.10;;;;;;20913793;28;20350;-55
2021/03/22 12:33:33;;;;;;;5.53;3.65;;;11.20;52.00;;;;;;20911772;28;20087;-53
2021/03/22 12:43:35;;;;;;;5.00;3.47;;;11.20;47.50;;;;;;20894437;28;20055;-53
2021/03/22 12:53:37;;;;;;;4.88;3.42;;;10.80;47.40;;;;;;20910543;28;20094;-53
2021/03/22 13:03:39;;;;;;;5.32;2.92;;;10.00;47.50;;;;;;20910603;28;20049;-53
2021/03/22 13:13:41;;;;;;;5.10;3.05;;;10.40;48.90;;;;;;20910450;28;20119;-53
2021/03/22 13:23:46;;;;;;;5.72;2.80;;;10.60;47.50;;;;;;20908774;28;20056;-52
2021/03/22 13:33:49;;;;;;;4.63;2.80;;;10.40;48.60;;;;;;20907872;28;20055;-50
2021/03/22 13:43:51;;;;;;;5.68;3.30;;;9.60;50.30;;;;;;20891573;28;20088;-53
2021/03/22 13:53:54;;;;;;;5.28;3.70;;;9.90;48.70;;;;;;20901905;28;20029;-54
2021/03/22 14:03:57;;;;;;;6.18;3.58;;;10.20;47.10;;;;;;20925160;28;20057;-53
2021/03/22 14:13:59;;;;;;;7.50;3.38;;;9.90;49.00;;;;;;20922754;28;20037;-53
2021/03/22 14:24:01;;;;;;;7.45;3.60;;;9.60;49.40;;;;;;20923338;28;20040;-56
2021/03/22 14:34:05;;;;;;;5.25;2.53;;;9.70;48.00;;;;;;20922524;28;20450;-55
2021/03/22 14:44:07;;;;;;;4.18;2.95;;;9.20;48.10;;;;;;20921943;28;20025;-52
2021/03/22 14:54:10;;;;;;;5.10;2.78;;;8.80;47.30;;;;;;20921176;28;20114;-56
2021/03/22 15:04:13;;;;;;;6.85;2.97;;;8.20;49.00;;;;;;20917524;28;20049;-54
2021/03/22 15:14:15;;;;;;;4.72;2.95;;;7.70;48.90;;;;;;20918213;28;20037;-55
2021/03/22 15:24:17;;;;;;;4.68;2.90;;;7.40;48.60;;;;;;20918913;28;20044;-58
2021/03/22 15:34:19;;;;;;;4.88;2.88;;;6.80;50.60;;;;;;20916586;28;20162;-56
2021/03/22 15:44:21;;;;;;;5.18;2.90;;;6.50;51.20;;;;;;20917273;28;20037;-57
2021/03/22 15:54:22;;;;;;;5.20;2.72;;;6.10;51.00;;;;;;20898514;28;20037;-57
2021/03/22 16:04:24;;;;;;;5.10;3.03;;;5.80;53.00;;;;;;20915485;28;20126;-58
2021/03/22 16:14:26;;;;;;;4.68;3.08;;;5.30;53.30;;;;;;20914492;28;20484;-57
2021/03/22 16:24:28;;;;;;;4.57;2.78;;;4.60;55.00;;;;;;20914355;28;20044;-56
2021/03/22 16:34:32;;;;;;;6.25;3.30;;;4.30;56.50;;;;;;20912853;28;20106;-56
2021/03/22 16:44:40;;;;;;;8.73;3.10;;;4.20;56.80;;;;;;20896115;28;20029;-57
2021/03/22 16:54:47;;;;;;;5.93;3.65;;;3.60;58.70;;;;;;20910587;28;20037;-60
2021/03/22 17:04:49;;;;;;;4.13;2.13;;;3.00;63.40;;;;;;20910033;28;20102;-57
2021/03/22 17:14:51;;;;;;;2.20;0.70;;;2.50;62.80;;;;;;20910468;28;20094;-55
2021/03/22 17:24:53;;;;;;;0.90;0.30;;;2.80;59.00;;;;;;20908120;28;20367;-57
2021/03/22 17:34:55;;;;;;;1.58;0.43;;;3.00;54.50;;;;;;20909223;28;20040;-55
2021/03/22 17:44:57;;;;;;;4.80;0.47;;;2.80;55.00;;;;;;20909248;28;20041;-59
2021/03/22 17:55:02;;;;;;;1.02;0.40;;;2.60;54.90;;;;;;20874573;28;20381;-52
2021/03/22 18:05:06;;;;;;;1.45;0.40;;;2.40;54.60;;;;;;20908380;28;20118;-55
2021/03/22 18:15:11;;;;;;;1.73;0.50;;;2.00;59.30;;;;;;20907961;28;20095;-54
2021/03/22 18:25:15;;;;;;;1.20;0.40;;;1.70;58.80;;;;;;20906861;28;20091;-55
2021/03/22 18:35:25;;;;;;;2.10;0.35;;;1.70;54.80;;;;;;20910078;28;20040;-56
2021/03/22 18:45:28;;;;;;;0.85;0.35;;;1.70;58.80;;;;;;20921895;28;20033;-56
2021/03/22 18:55:33;;;;;;;1.10;0.45;;;1.10;61.20;;;;;;20921155;28;20038;-59
2021/03/22 19:05:39;;;;;;;0.93;0.38;;;0.50;65.70;;;;;;20920424;28;20087;-53
2021/03/22 19:15:41;;;;;;;0.55;0.10;;;0.80;62.50;;;;;;20918065;28;20106;-54
2021/03/22 19:25:44;;;;;;;0.68;0.25;;;1.20;58.90;;;;;;20917323;28;20059;-55
2021/03/22 19:35:50;;;;;;;1.50;0.40;;;1.20;57.20;;;;;;20917944;28;20102;-53
2021/03/22 19:45:57;;;;;;;0.32;0.22;;;1.60;55.00;;;;;;20916853;28;20381;-54
2021/03/22 19:56:01;;;;;;;0.82;0.20;;;1.60;55.00;;;;;;20915506;28;20037;-52
2021/03/22 20:06:05;;;;;;;0.70;0.20;;;1.60;54.60;;;;;;20914780;28;20053;-55
2021/03/22 20:16:08;;;;;;;1.48;0.20;;;1.50;54.80;;;;;;20915254;28;20037;-56
2021/03/22 20:26:12;;;;;;;3.80;0.40;;;1.20;56.20;;;;;;20914078;28;20029;-55
2021/03/22 20:36:19;;;;;;;0.57;0.20;;;1.50;53.50;;;;;;20911923;28;20041;-53
2021/03/22 20:46:22;;;;;;;1.08;0.20;;;1.70;52.40;;;;;;20911319;28;20090;-55
2021/03/22 20:56:25;;;;;;;1.30;0.20;;;1.70;52.30;;;;;;20910361;28;20044;-55
2021/03/22 21:06:27;;;;;;;0.40;0.20;;;1.70;51.90;;;;;;20910253;28;20102;-56
2021/03/22 21:16:29;;;;;;;0.57;0.20;;;1.60;51.80;;;;;;20876294;28;20083;-53
2021/03/22 21:26:34;;;;;;;2.05;0.40;;;1.60;52.90;;;;;;20909971;28;20033;-54
2021/03/22 21:36:36;;;;;;;1.65;0.38;;;1.50;53.70;;;;;;20908206;28;20060;-54
2021/03/22 21:46:38;;;;;;;1.02;0.30;;;1.40;53.80;;;;;;20891566;28;20446;-54
2021/03/22 21:56:42;;;;;;;1.95;0.40;;;1.10;54.60;;;;;;20906917;28;20049;-54
2021/03/22 22:06:44;;;;;;;0.40;0.28;;;1.00;54.80;;;;;;20908468;28;20519;-53
2021/03/22 22:16:46;;;;;;;2.20;0.38;;;0.90;54.80;;;;;;20921816;28;20098;-51
2021/03/22 22:26:50;;;;;;;0.80;0.15;;;0.70;55.80;;;;;;20923564;28;20037;-56
2021/03/22 22:36:52;;;;;;;0.88;0.40;;;0.50;57.90;;;;;;20922652;28;20063;-52
2021/03/22 22:46:54;;;;;;;0.75;0.30;;;0.20;60.10;;;;;;20920779;28;20439;-52
2021/03/22 22:56:57;;;;;;;1.05;0.40;;;0.00;61.00;;;;;;20919991;28;20040;-54
2021/03/22 23:06:59;;;;;;;2.08;0.68;;;-0.30;63.00;;;;;;20920478;28;20049;-54
2021/03/22 23:17:02;;;;;;;0.30;0.20;;;-0.10;62.40;;;;;;20919748;28;20549;-56
2021/03/22 23:27:05;;;;;;;1.80;0.38;;;0.10;60.90;;;;;;20917443;28;20040;-57
2021/03/22 23:37:09;;;;;;;1.05;0.30;;;0.20;59.90;;;;;;20916925;28;20106;-55
2021/03/22 23:47:10;;;;;;;0.98;0.30;;;0.20;59.70;;;;;;20916142;28;20102;-55
2021/03/22 23:57:12;;;;;;;2.40;0.43;;;0.10;60.20;;;;;;20916458;28;20090;-54
